LKPN weather

Podhořany Airport
Podhořany, Pardubice Region, Czech Republic

Public forecast

Using degrees Celsius for public forecast. Weather courtesy of forecast.io.

Closest aviation weather report (METAR) to Podhořany Airport

Closest report is Čáslav Air Base, 6.5 nm (12.0 km) W. Retrieved 2020/04/02 06:00 UTC (21 minutes ago):

LKCV 020600Z VRB02KT CAVOK M02/M07 Q1015 NOSIG RMK BLU BLU

Closest aviation forecast (TAF) to Podhořany Airport

Closest forecast is Čáslav Air Base, 6.5 nm (12.0 km) W. Retrieved 2020/04/02 06:06 UTC (15 minutes ago):

TAF LKCV 020500Z 0206/0306 13005KT CAVOK BECMG 0207/0210 31006KT BECMG 0214/0217 24006KT TEMPO 0222/0304 25011KT